sensor_id;sensor_type;location;lat;lon;timestamp;P1;durP1;ratioP1;P2;durP2;ratioP2
22525;SDS011;11429;50.842;4.386;2022-10-31T00:01:22;14.77;;;8.40;;
22525;SDS011;11429;50.842;4.386;2022-10-31T00:03:49;16.55;;;8.60;;
22525;SDS011;11429;50.842;4.386;2022-10-31T00:06:15;15.23;;;8.25;;
22525;SDS011;11429;50.842;4.386;2022-10-31T00:08:47;18.25;;;8.52;;
22525;SDS011;11429;50.842;4.386;2022-10-31T00:11:18;40.53;;;9.35;;
22525;SDS011;11429;50.842;4.386;2022-10-31T00:13:43;15.80;;;7.95;;
22525;SDS011;11429;50.842;4.386;2022-10-31T00:16:13;14.38;;;7.82;;
22525;SDS011;11429;50.842;4.386;2022-10-31T00:18:42;20.13;;;8.57;;
22525;SDS011;11429;50.842;4.386;2022-10-31T00:21:08;21.35;;;8.65;;
22525;SDS011;11429;50.842;4.386;2022-10-31T00:23:34;27.13;;;7.70;;
22525;SDS011;11429;50.842;4.386;2022-10-31T00:26:00;30.08;;;9.57;;
22525;SDS011;11429;50.842;4.386;2022-10-31T00:28:27;15.45;;;8.48;;
22525;SDS011;11429;50.842;4.386;2022-10-31T00:30:57;20.02;;;8.50;;
22525;SDS011;11429;50.842;4.386;2022-10-31T00:33:24;15.55;;;9.35;;
22525;SDS011;11429;50.842;4.386;2022-10-31T00:35:49;18.55;;;9.18;;
22525;SDS011;11429;50.842;4.386;2022-10-31T00:38:15;13.48;;;8.88;;
22525;SDS011;11429;50.842;4.386;2022-10-31T00:40:41;18.63;;;9.43;;
22525;SDS011;11429;50.842;4.386;2022-10-31T00:43:07;19.65;;;9.00;;
22525;SDS011;11429;50.842;4.386;2022-10-31T00:45:32;31.27;;;10.07;;
22525;SDS011;11429;50.842;4.386;2022-10-31T00:47:58;21.38;;;9.07;;
22525;SDS011;11429;50.842;4.386;2022-10-31T00:50:23;15.73;;;8.90;;
22525;SDS011;11429;50.842;4.386;2022-10-31T00:52:49;27.10;;;9.85;;
22525;SDS011;11429;50.842;4.386;2022-10-31T00:55:15;27.38;;;11.23;;
22525;SDS011;11429;50.842;4.386;2022-10-31T00:57:40;21.23;;;9.45;;
22525;SDS011;11429;50.842;4.386;2022-10-31T01:00:06;18.20;;;8.50;;
22525;SDS011;11429;50.842;4.386;2022-10-31T01:02:32;28.45;;;8.48;;
22525;SDS011;11429;50.842;4.386;2022-10-31T01:04:58;29.80;;;10.02;;
22525;SDS011;11429;50.842;4.386;2022-10-31T01:07:24;16.33;;;8.88;;
22525;SDS011;11429;50.842;4.386;2022-10-31T01:09:52;22.35;;;9.32;;
22525;SDS011;11429;50.842;4.386;2022-10-31T01:12:18;22.35;;;8.68;;
22525;SDS011;11429;50.842;4.386;2022-10-31T01:14:44;20.42;;;8.18;;
22525;SDS011;11429;50.842;4.386;2022-10-31T01:17:10;15.93;;;8.35;;
22525;SDS011;11429;50.842;4.386;2022-10-31T01:19:37;22.58;;;8.98;;
22525;SDS011;11429;50.842;4.386;2022-10-31T01:22:02;16.67;;;8.95;;
22525;SDS011;11429;50.842;4.386;2022-10-31T01:24:28;14.98;;;8.60;;
22525;SDS011;11429;50.842;4.386;2022-10-31T01:26:53;13.38;;;8.30;;
22525;SDS011;11429;50.842;4.386;2022-10-31T01:29:20;21.70;;;8.30;;
22525;SDS011;11429;50.842;4.386;2022-10-31T01:31:46;24.23;;;8.65;;
22525;SDS011;11429;50.842;4.386;2022-10-31T01:34:13;36.55;;;8.73;;
22525;SDS011;11429;50.842;4.386;2022-10-31T01:36:41;24.20;;;8.80;;
22525;SDS011;11429;50.842;4.386;2022-10-31T01:39:19;21.70;;;8.98;;
22525;SDS011;11429;50.842;4.386;2022-10-31T01:41:49;18.10;;;8.18;;
22525;SDS011;11429;50.842;4.386;2022-10-31T01:46:49;42.72;;;9.23;;
22525;SDS011;11429;50.842;4.386;2022-10-31T01:51:58;18.58;;;6.68;;
22525;SDS011;11429;50.842;4.386;2022-10-31T01:54:30;23.88;;;7.88;;
22525;SDS011;11429;50.842;4.386;2022-10-31T01:57:03;16.38;;;7.93;;
22525;SDS011;11429;50.842;4.386;2022-10-31T01:59:32;13.73;;;7.55;;
22525;SDS011;11429;50.842;4.386;2022-10-31T02:02:07;11.02;;;7.70;;
22525;SDS011;11429;50.842;4.386;2022-10-31T02:04:33;17.92;;;7.40;;
22525;SDS011;11429;50.842;4.386;2022-10-31T02:07:05;21.70;;;7.82;;
22525;SDS011;11429;50.842;4.386;2022-10-31T02:12:01;14.07;;;7.10;;
22525;SDS011;11429;50.842;4.386;2022-10-31T02:14:29;12.75;;;7.25;;
22525;SDS011;11429;50.842;4.386;2022-10-31T02:16:56;12.23;;;7.15;;
22525;SDS011;11429;50.842;4.386;2022-10-31T02:22:14;21.58;;;7.65;;
22525;SDS011;11429;50.842;4.386;2022-10-31T02:24:44;12.35;;;7.45;;
22525;SDS011;11429;50.842;4.386;2022-10-31T02:30:04;16.27;;;8.30;;
22525;SDS011;11429;50.842;4.386;2022-10-31T02:32:44;13.82;;;7.50;;
22525;SDS011;11429;50.842;4.386;2022-10-31T02:35:27;12.13;;;7.65;;
22525;SDS011;11429;50.842;4.386;2022-10-31T02:40:54;14.30;;;7.85;;
22525;SDS011;11429;50.842;4.386;2022-10-31T02:46:13;18.17;;;7.95;;
22525;SDS011;11429;50.842;4.386;2022-10-31T02:48:44;12.25;;;8.43;;
22525;SDS011;11429;50.842;4.386;2022-10-31T02:51:11;25.58;;;8.60;;
22525;SDS011;11429;50.842;4.386;2022-10-31T02:53:38;19.13;;;8.48;;
22525;SDS011;11429;50.842;4.386;2022-10-31T02:56:14;16.40;;;8.10;;
22525;SDS011;11429;50.842;4.386;2022-10-31T03:15:28;15.32;;;8.57;;
22525;SDS011;11429;50.842;4.386;2022-10-31T03:21:13;16.77;;;9.00;;
22525;SDS011;11429;50.842;4.386;2022-10-31T03:23:43;22.48;;;9.90;;
22525;SDS011;11429;50.842;4.386;2022-10-31T03:26:11;20.73;;;8.75;;
22525;SDS011;11429;50.842;4.386;2022-10-31T03:28:49;17.08;;;9.05;;
22525;SDS011;11429;50.842;4.386;2022-10-31T03:31:26;22.27;;;9.20;;
22525;SDS011;11429;50.842;4.386;2022-10-31T03:33:56;14.73;;;8.93;;
22525;SDS011;11429;50.842;4.386;2022-10-31T03:36:24;38.53;;;10.18;;
22525;SDS011;11429;50.842;4.386;2022-10-31T03:38:52;21.33;;;9.70;;
22525;SDS011;11429;50.842;4.386;2022-10-31T03:41:21;27.27;;;9.30;;
22525;SDS011;11429;50.842;4.386;2022-10-31T03:43:54;27.38;;;10.15;;
22525;SDS011;11429;50.842;4.386;2022-10-31T03:46:23;15.25;;;8.90;;
22525;SDS011;11429;50.842;4.386;2022-10-31T03:48:49;11.90;;;8.82;;
22525;SDS011;11429;50.842;4.386;2022-10-31T03:53:57;23.45;;;9.77;;
22525;SDS011;11429;50.842;4.386;2022-10-31T03:59:04;23.48;;;9.23;;
22525;SDS011;11429;50.842;4.386;2022-10-31T04:01:39;16.02;;;9.80;;
22525;SDS011;11429;50.842;4.386;2022-10-31T04:04:09;26.80;;;10.10;;
22525;SDS011;11429;50.842;4.386;2022-10-31T04:06:36;19.85;;;9.30;;
22525;SDS011;11429;50.842;4.386;2022-10-31T04:09:05;15.02;;;9.07;;
22525;SDS011;11429;50.842;4.386;2022-10-31T04:11:34;12.77;;;8.48;;
22525;SDS011;11429;50.842;4.386;2022-10-31T04:14:03;13.90;;;8.80;;
22525;SDS011;11429;50.842;4.386;2022-10-31T04:16:30;13.85;;;8.15;;
22525;SDS011;11429;50.842;4.386;2022-10-31T04:18:56;20.65;;;8.93;;
22525;SDS011;11429;50.842;4.386;2022-10-31T04:21:29;15.13;;;8.90;;
22525;SDS011;11429;50.842;4.386;2022-10-31T04:23:55;31.35;;;10.30;;
22525;SDS011;11429;50.842;4.386;2022-10-31T04:26:21;15.10;;;9.25;;
22525;SDS011;11429;50.842;4.386;2022-10-31T04:28:47;15.50;;;9.63;;
22525;SDS011;11429;50.842;4.386;2022-10-31T04:31:13;18.88;;;10.43;;
22525;SDS011;11429;50.842;4.386;2022-10-31T04:33:39;15.70;;;10.35;;
22525;SDS011;11429;50.842;4.386;2022-10-31T04:36:05;18.92;;;10.45;;
22525;SDS011;11429;50.842;4.386;2022-10-31T04:38:31;15.75;;;10.15;;
22525;SDS011;11429;50.842;4.386;2022-10-31T04:40:56;16.15;;;10.73;;
22525;SDS011;11429;50.842;4.386;2022-10-31T04:43:22;18.98;;;11.10;;
22525;SDS011;11429;50.842;4.386;2022-10-31T04:45:48;17.25;;;10.40;;
22525;SDS011;11429;50.842;4.386;2022-10-31T04:48:13;20.25;;;10.93;;
22525;SDS011;11429;50.842;4.386;2022-10-31T04:50:39;19.20;;;10.82;;
22525;SDS011;11429;50.842;4.386;2022-10-31T04:53:05;16.92;;;10.40;;
22525;SDS011;11429;50.842;4.386;2022-10-31T04:55:31;19.40;;;11.50;;
22525;SDS011;11429;50.842;4.386;2022-10-31T04:57:56;28.80;;;11.85;;
22525;SDS011;11429;50.842;4.386;2022-10-31T05:00:22;18.73;;;11.10;;
22525;SDS011;11429;50.842;4.386;2022-10-31T05:02:49;20.80;;;12.10;;
22525;SDS011;11429;50.842;4.386;2022-10-31T05:05:16;24.63;;;11.25;;
22525;SDS011;11429;50.842;4.386;2022-10-31T05:07:44;15.77;;;11.32;;
22525;SDS011;11429;50.842;4.386;2022-10-31T05:10:11;18.90;;;11.70;;
22525;SDS011;11429;50.842;4.386;2022-10-31T05:12:46;22.77;;;12.05;;
22525;SDS011;11429;50.842;4.386;2022-10-31T05:15:13;17.17;;;11.65;;
22525;SDS011;11429;50.842;4.386;2022-10-31T05:17:39;17.50;;;11.82;;
22525;SDS011;11429;50.842;4.386;2022-10-31T05:20:05;17.42;;;11.70;;
22525;SDS011;11429;50.842;4.386;2022-10-31T05:22:31;20.50;;;12.32;;
22525;SDS011;11429;50.842;4.386;2022-10-31T05:24:56;19.33;;;12.45;;
22525;SDS011;11429;50.842;4.386;2022-10-31T05:27:22;20.58;;;12.85;;
22525;SDS011;11429;50.842;4.386;2022-10-31T05:29:47;15.65;;;11.63;;
22525;SDS011;11429;50.842;4.386;2022-10-31T05:32:13;23.20;;;13.05;;
22525;SDS011;11429;50.842;4.386;2022-10-31T05:34:39;19.90;;;13.02;;
22525;SDS011;11429;50.842;4.386;2022-10-31T05:37:04;22.50;;;12.93;;
22525;SDS011;11429;50.842;4.386;2022-10-31T05:39:30;25.23;;;12.63;;
22525;SDS011;11429;50.842;4.386;2022-10-31T05:41:56;21.55;;;13.25;;
22525;SDS011;11429;50.842;4.386;2022-10-31T05:44:21;19.13;;;13.23;;
22525;SDS011;11429;50.842;4.386;2022-10-31T05:46:47;18.02;;;12.18;;
22525;SDS011;11429;50.842;4.386;2022-10-31T05:49:12;20.40;;;13.02;;
22525;SDS011;11429;50.842;4.386;2022-10-31T05:51:38;21.63;;;12.25;;
22525;SDS011;11429;50.842;4.386;2022-10-31T05:54:04;18.42;;;12.00;;
22525;SDS011;11429;50.842;4.386;2022-10-31T05:56:30;28.00;;;13.60;;
22525;SDS011;11429;50.842;4.386;2022-10-31T05:58:55;23.67;;;12.55;;
22525;SDS011;11429;50.842;4.386;2022-10-31T06:01:21;26.17;;;13.40;;
22525;SDS011;11429;50.842;4.386;2022-10-31T06:03:47;26.92;;;14.13;;
22525;SDS011;11429;50.842;4.386;2022-10-31T06:06:12;22.60;;;13.70;;
22525;SDS011;11429;50.842;4.386;2022-10-31T06:08:38;19.42;;;12.88;;
22525;SDS011;11429;50.842;4.386;2022-10-31T06:11:04;17.90;;;12.73;;
22525;SDS011;11429;50.842;4.386;2022-10-31T06:13:29;19.77;;;12.65;;
22525;SDS011;11429;50.842;4.386;2022-10-31T06:15:55;25.33;;;14.15;;
22525;SDS011;11429;50.842;4.386;2022-10-31T06:18:20;23.48;;;14.30;;
22525;SDS011;11429;50.842;4.386;2022-10-31T06:20:46;24.50;;;14.02;;
22525;SDS011;11429;50.842;4.386;2022-10-31T06:23:12;20.75;;;13.38;;
22525;SDS011;11429;50.842;4.386;2022-10-31T06:25:37;22.20;;;13.65;;
22525;SDS011;11429;50.842;4.386;2022-10-31T06:28:03;22.33;;;13.05;;
22525;SDS011;11429;50.842;4.386;2022-10-31T06:30:29;29.58;;;14.07;;
22525;SDS011;11429;50.842;4.386;2022-10-31T06:33:00;22.25;;;13.75;;
22525;SDS011;11429;50.842;4.386;2022-10-31T06:35:27;25.10;;;14.55;;
22525;SDS011;11429;50.842;4.386;2022-10-31T06:37:53;20.00;;;13.10;;
22525;SDS011;11429;50.842;4.386;2022-10-31T06:40:19;20.50;;;14.15;;
22525;SDS011;11429;50.842;4.386;2022-10-31T06:42:45;24.88;;;14.32;;
22525;SDS011;11429;50.842;4.386;2022-10-31T06:45:10;24.88;;;14.00;;
22525;SDS011;11429;50.842;4.386;2022-10-31T06:47:36;18.80;;;13.00;;
22525;SDS011;11429;50.842;4.386;2022-10-31T06:50:02;20.63;;;13.38;;
22525;SDS011;11429;50.842;4.386;2022-10-31T06:52:28;21.90;;;13.43;;
22525;SDS011;11429;50.842;4.386;2022-10-31T06:54:53;19.80;;;13.43;;
22525;SDS011;11429;50.842;4.386;2022-10-31T06:57:19;18.17;;;12.93;;
22525;SDS011;11429;50.842;4.386;2022-10-31T06:59:45;33.42;;;14.25;;
22525;SDS011;11429;50.842;4.386;2022-10-31T07:02:10;20.25;;;13.15;;
22525;SDS011;11429;50.842;4.386;2022-10-31T07:04:36;20.77;;;13.30;;
22525;SDS011;11429;50.842;4.386;2022-10-31T07:07:02;22.17;;;13.10;;
22525;SDS011;11429;50.842;4.386;2022-10-31T07:09:28;20.90;;;13.45;;
22525;SDS011;11429;50.842;4.386;2022-10-31T07:11:53;22.80;;;13.70;;
22525;SDS011;11429;50.842;4.386;2022-10-31T07:14:19;19.58;;;12.88;;
22525;SDS011;11429;50.842;4.386;2022-10-31T07:16:51;23.10;;;14.15;;
22525;SDS011;11429;50.842;4.386;2022-10-31T07:19:17;19.95;;;13.57;;
22525;SDS011;11429;50.842;4.386;2022-10-31T07:21:43;17.20;;;13.57;;
22525;SDS011;11429;50.842;4.386;2022-10-31T07:24:08;20.85;;;13.73;;
22525;SDS011;11429;50.842;4.386;2022-10-31T07:26:34;23.40;;;13.75;;
22525;SDS011;11429;50.842;4.386;2022-10-31T07:29:00;21.70;;;13.80;;
22525;SDS011;11429;50.842;4.386;2022-10-31T07:31:25;23.02;;;14.10;;
22525;SDS011;11429;50.842;4.386;2022-10-31T07:33:51;19.55;;;13.20;;
22525;SDS011;11429;50.842;4.386;2022-10-31T07:36:16;23.63;;;14.63;;
22525;SDS011;11429;50.842;4.386;2022-10-31T07:38:42;19.45;;;14.02;;
22525;SDS011;11429;50.842;4.386;2022-10-31T07:41:08;21.65;;;13.98;;
22525;SDS011;11429;50.842;4.386;2022-10-31T07:43:34;21.40;;;14.93;;
22525;SDS011;11429;50.842;4.386;2022-10-31T07:46:00;19.92;;;13.90;;
22525;SDS011;11429;50.842;4.386;2022-10-31T07:48:26;23.65;;;13.52;;
22525;SDS011;11429;50.842;4.386;2022-10-31T07:50:51;20.13;;;12.35;;
22525;SDS011;11429;50.842;4.386;2022-10-31T07:53:17;21.45;;;13.43;;
22525;SDS011;11429;50.842;4.386;2022-10-31T07:55:43;20.35;;;12.75;;
22525;SDS011;11429;50.842;4.386;2022-10-31T07:58:10;18.45;;;11.80;;
22525;SDS011;11429;50.842;4.386;2022-10-31T08:00:38;18.80;;;11.35;;
22525;SDS011;11429;50.842;4.386;2022-10-31T08:03:07;15.57;;;12.05;;
22525;SDS011;11429;50.842;4.386;2022-10-31T08:05:35;19.83;;;13.32;;
22525;SDS011;11429;50.842;4.386;2022-10-31T08:08:01;18.70;;;11.98;;
22525;SDS011;11429;50.842;4.386;2022-10-31T08:10:28;17.35;;;11.35;;
22525;SDS011;11429;50.842;4.386;2022-10-31T08:12:58;16.05;;;11.85;;
22525;SDS011;11429;50.842;4.386;2022-10-31T08:15:31;14.38;;;10.57;;
22525;SDS011;11429;50.842;4.386;2022-10-31T08:18:02;21.05;;;11.82;;
22525;SDS011;11429;50.842;4.386;2022-10-31T08:20:53;19.52;;;10.80;;
22525;SDS011;11429;50.842;4.386;2022-10-31T08:23:19;14.70;;;10.25;;
22525;SDS011;11429;50.842;4.386;2022-10-31T08:25:45;16.20;;;10.45;;
22525;SDS011;11429;50.842;4.386;2022-10-31T08:28:12;18.77;;;10.65;;
22525;SDS011;11429;50.842;4.386;2022-10-31T08:30:39;16.75;;;9.35;;
22525;SDS011;11429;50.842;4.386;2022-10-31T08:35:36;11.43;;;8.98;;
22525;SDS011;11429;50.842;4.386;2022-10-31T08:38:02;14.32;;;8.80;;
22525;SDS011;11429;50.842;4.386;2022-10-31T08:40:29;13.73;;;8.25;;
22525;SDS011;11429;50.842;4.386;2022-10-31T08:43:08;11.38;;;8.63;;
22525;SDS011;11429;50.842;4.386;2022-10-31T08:45:43;12.90;;;8.90;;
22525;SDS011;11429;50.842;4.386;2022-10-31T08:48:13;11.10;;;7.85;;
22525;SDS011;11429;50.842;4.386;2022-10-31T08:50:44;13.18;;;8.10;;
22525;SDS011;11429;50.842;4.386;2022-10-31T08:53:14;14.70;;;7.97;;
22525;SDS011;11429;50.842;4.386;2022-10-31T08:55:42;13.98;;;7.78;;
22525;SDS011;11429;50.842;4.386;2022-10-31T08:58:12;12.18;;;7.93;;
22525;SDS011;11429;50.842;4.386;2022-10-31T09:00:39;10.00;;;7.50;;
22525;SDS011;11429;50.842;4.386;2022-10-31T09:03:06;15.68;;;9.27;;
22525;SDS011;11429;50.842;4.386;2022-10-31T09:05:35;12.70;;;7.85;;
22525;SDS011;11429;50.842;4.386;2022-10-31T09:08:02;11.05;;;7.30;;
22525;SDS011;11429;50.842;4.386;2022-10-31T09:10:29;11.60;;;7.60;;
22525;SDS011;11429;50.842;4.386;2022-10-31T09:13:00;14.93;;;7.90;;
22525;SDS011;11429;50.842;4.386;2022-10-31T09:15:35;23.23;;;9.05;;
22525;SDS011;11429;50.842;4.386;2022-10-31T09:18:06;10.90;;;8.13;;
22525;SDS011;11429;50.842;4.386;2022-10-31T09:20:34;15.80;;;8.90;;
22525;SDS011;11429;50.842;4.386;2022-10-31T09:23:04;15.27;;;9.10;;
22525;SDS011;11429;50.842;4.386;2022-10-31T09:25:32;21.35;;;9.82;;
22525;SDS011;11429;50.842;4.386;2022-10-31T09:27:59;16.58;;;8.85;;
22525;SDS011;11429;50.842;4.386;2022-10-31T09:30:27;13.18;;;8.43;;
22525;SDS011;11429;50.842;4.386;2022-10-31T09:32:55;13.80;;;8.55;;
22525;SDS011;11429;50.842;4.386;2022-10-31T09:35:22;13.38;;;8.00;;
22525;SDS011;11429;50.842;4.386;2022-10-31T09:37:53;21.70;;;10.25;;
22525;SDS011;11429;50.842;4.386;2022-10-31T09:40:29;17.73;;;9.05;;
22525;SDS011;11429;50.842;4.386;2022-10-31T09:43:03;14.65;;;8.88;;
22525;SDS011;11429;50.842;4.386;2022-10-31T09:46:20;20.33;;;9.27;;
22525;SDS011;11429;50.842;4.386;2022-10-31T09:51:13;19.85;;;9.30;;
22525;SDS011;11429;50.842;4.386;2022-10-31T09:53:59;19.23;;;8.75;;
22525;SDS011;11429;50.842;4.386;2022-10-31T09:56:44;14.77;;;7.93;;
22525;SDS011;11429;50.842;4.386;2022-10-31T09:59:12;13.00;;;7.38;;
22525;SDS011;11429;50.842;4.386;2022-10-31T10:01:56;11.82;;;7.68;;
22525;SDS011;11429;50.842;4.386;2022-10-31T10:09:53;17.77;;;8.80;;
22525;SDS011;11429;50.842;4.386;2022-10-31T10:15:13;11.57;;;8.48;;
22525;SDS011;11429;50.842;4.386;2022-10-31T10:26:18;14.00;;;8.23;;
22525;SDS011;11429;50.842;4.386;2022-10-31T10:28:57;12.45;;;7.93;;
22525;SDS011;11429;50.842;4.386;2022-10-31T10:31:32;12.75;;;8.25;;
22525;SDS011;11429;50.842;4.386;2022-10-31T10:37:04;13.00;;;8.20;;
22525;SDS011;11429;50.842;4.386;2022-10-31T10:40:02;12.65;;;9.05;;
22525;SDS011;11429;50.842;4.386;2022-10-31T10:42:39;12.25;;;8.73;;
22525;SDS011;11429;50.842;4.386;2022-10-31T10:45:24;15.05;;;8.07;;
22525;SDS011;11429;50.842;4.386;2022-10-31T10:48:16;14.20;;;8.63;;
22525;SDS011;11429;50.842;4.386;2022-10-31T10:51:06;15.95;;;8.82;;
22525;SDS011;11429;50.842;4.386;2022-10-31T10:59:01;16.13;;;8.70;;
22525;SDS011;11429;50.842;4.386;2022-10-31T11:01:28;15.52;;;8.63;;
22525;SDS011;11429;50.842;4.386;2022-10-31T11:03:54;15.38;;;9.13;;
22525;SDS011;11429;50.842;4.386;2022-10-31T11:06:21;18.55;;;9.55;;
22525;SDS011;11429;50.842;4.386;2022-10-31T11:08:50;22.23;;;9.80;;
22525;SDS011;11429;50.842;4.386;2022-10-31T11:13:43;19.30;;;8.70;;
22525;SDS011;11429;50.842;4.386;2022-10-31T11:16:12;22.27;;;9.82;;
22525;SDS011;11429;50.842;4.386;2022-10-31T11:18:51;18.33;;;9.38;;
22525;SDS011;11429;50.842;4.386;2022-10-31T11:21:27;17.23;;;9.77;;
22525;SDS011;11429;50.842;4.386;2022-10-31T11:24:12;14.90;;;9.90;;
22525;SDS011;11429;50.842;4.386;2022-10-31T11:26:42;18.15;;;10.25;;
22525;SDS011;11429;50.842;4.386;2022-10-31T11:29:14;18.55;;;10.05;;
22525;SDS011;11429;50.842;4.386;2022-10-31T11:31:41;18.10;;;10.27;;
22525;SDS011;11429;50.842;4.386;2022-10-31T11:34:25;16.25;;;10.27;;
22525;SDS011;11429;50.842;4.386;2022-10-31T11:36:54;19.85;;;9.35;;
22525;SDS011;11429;50.842;4.386;2022-10-31T11:39:39;20.38;;;9.45;;
22525;SDS011;11429;50.842;4.386;2022-10-31T11:42:09;16.15;;;9.45;;
22525;SDS011;11429;50.842;4.386;2022-10-31T11:44:40;18.42;;;10.02;;
22525;SDS011;11429;50.842;4.386;2022-10-31T11:47:15;15.52;;;10.18;;
22525;SDS011;11429;50.842;4.386;2022-10-31T11:49:43;15.35;;;9.98;;
22525;SDS011;11429;50.842;4.386;2022-10-31T11:52:18;20.67;;;9.82;;
22525;SDS011;11429;50.842;4.386;2022-10-31T11:57:24;16.75;;;9.63;;
22525;SDS011;11429;50.842;4.386;2022-10-31T11:59:53;18.33;;;9.80;;
22525;SDS011;11429;50.842;4.386;2022-10-31T12:02:21;18.17;;;9.82;;
22525;SDS011;11429;50.842;4.386;2022-10-31T12:07:42;21.10;;;10.23;;
22525;SDS011;11429;50.842;4.386;2022-10-31T12:10:11;16.98;;;10.65;;
22525;SDS011;11429;50.842;4.386;2022-10-31T12:15:38;15.05;;;9.15;;
22525;SDS011;11429;50.842;4.386;2022-10-31T12:21:04;20.45;;;9.40;;
22525;SDS011;11429;50.842;4.386;2022-10-31T12:23:36;15.50;;;8.88;;
22525;SDS011;11429;50.842;4.386;2022-10-31T12:26:34;14.15;;;8.75;;
22525;SDS011;11429;50.842;4.386;2022-10-31T12:29:14;14.82;;;8.32;;
22525;SDS011;11429;50.842;4.386;2022-10-31T12:32:22;13.95;;;8.52;;
22525;SDS011;11429;50.842;4.386;2022-10-31T12:35:18;20.13;;;9.43;;
22525;SDS011;11429;50.842;4.386;2022-10-31T12:37:57;14.95;;;8.40;;
22525;SDS011;11429;50.842;4.386;2022-10-31T12:43:12;13.10;;;7.55;;
22525;SDS011;11429;50.842;4.386;2022-10-31T12:45:59;11.52;;;7.20;;
22525;SDS011;11429;50.842;4.386;2022-10-31T12:51:13;12.57;;;7.53;;
22525;SDS011;11429;50.842;4.386;2022-10-31T12:58:56;17.08;;;7.60;;
22525;SDS011;11429;50.842;4.386;2022-10-31T13:01:29;18.63;;;9.20;;
22525;SDS011;11429;50.842;4.386;2022-10-31T13:06:48;17.85;;;7.70;;
22525;SDS011;11429;50.842;4.386;2022-10-31T13:09:23;14.48;;;6.70;;
22525;SDS011;11429;50.842;4.386;2022-10-31T13:12:01;18.50;;;7.40;;
22525;SDS011;11429;50.842;4.386;2022-10-31T13:14:36;15.27;;;7.40;;
22525;SDS011;11429;50.842;4.386;2022-10-31T13:17:30;13.45;;;6.95;;
22525;SDS011;11429;50.842;4.386;2022-10-31T13:22:45;13.55;;;7.28;;
22525;SDS011;11429;50.842;4.386;2022-10-31T13:25:19;13.65;;;7.25;;
22525;SDS011;11429;50.842;4.386;2022-10-31T13:27:59;13.68;;;7.25;;
22525;SDS011;11429;50.842;4.386;2022-10-31T13:30:38;15.52;;;7.50;;
22525;SDS011;11429;50.842;4.386;2022-10-31T13:33:13;14.35;;;7.65;;
22525;SDS011;11429;50.842;4.386;2022-10-31T13:41:18;18.27;;;7.55;;
22525;SDS011;11429;50.842;4.386;2022-10-31T13:44:03;19.60;;;8.10;;
22525;SDS011;11429;50.842;4.386;2022-10-31T13:46:40;17.50;;;8.32;;
22525;SDS011;11429;50.842;4.386;2022-10-31T13:54:35;18.73;;;8.60;;
22525;SDS011;11429;50.842;4.386;2022-10-31T13:59:50;18.95;;;7.85;;
22525;SDS011;11429;50.842;4.386;2022-10-31T14:02:21;16.35;;;7.72;;
22525;SDS011;11429;50.842;4.386;2022-10-31T14:07:30;15.02;;;6.60;;
22525;SDS011;11429;50.842;4.386;2022-10-31T14:10:04;13.98;;;6.90;;
22525;SDS011;11429;50.842;4.386;2022-10-31T14:12:46;18.35;;;6.40;;
22525;SDS011;11429;50.842;4.386;2022-10-31T14:15:23;18.73;;;6.30;;
22525;SDS011;11429;50.842;4.386;2022-10-31T14:17:52;14.40;;;6.28;;
22525;SDS011;11429;50.842;4.386;2022-10-31T14:22:58;13.45;;;5.78;;
22525;SDS011;11429;50.842;4.386;2022-10-31T14:25:31;14.15;;;5.53;;
22525;SDS011;11429;50.842;4.386;2022-10-31T14:28:00;12.65;;;6.00;;
22525;SDS011;11429;50.842;4.386;2022-10-31T14:30:28;13.45;;;6.15;;
22525;SDS011;11429;50.842;4.386;2022-10-31T14:32:57;13.57;;;5.70;;
22525;SDS011;11429;50.842;4.386;2022-10-31T14:35:29;9.98;;;5.13;;
22525;SDS011;11429;50.842;4.386;2022-10-31T14:38:20;10.60;;;5.75;;
22525;SDS011;11429;50.842;4.386;2022-10-31T14:49:50;12.77;;;5.20;;
22525;SDS011;11429;50.842;4.386;2022-10-31T14:52:32;15.82;;;5.75;;
22525;SDS011;11429;50.842;4.386;2022-10-31T14:55:00;11.90;;;5.47;;
22525;SDS011;11429;50.842;4.386;2022-10-31T14:57:34;11.85;;;5.43;;
22525;SDS011;11429;50.842;4.386;2022-10-31T15:00:19;10.52;;;5.60;;
22525;SDS011;11429;50.842;4.386;2022-10-31T15:02:56;14.88;;;5.82;;
22525;SDS011;11429;50.842;4.386;2022-10-31T15:06:03;11.93;;;5.65;;
22525;SDS011;11429;50.842;4.386;2022-10-31T15:08:40;13.10;;;6.32;;
22525;SDS011;11429;50.842;4.386;2022-10-31T15:11:11;13.77;;;6.35;;
22525;SDS011;11429;50.842;4.386;2022-10-31T15:13:49;14.50;;;6.07;;
22525;SDS011;11429;50.842;4.386;2022-10-31T15:16:18;16.30;;;6.57;;
22525;SDS011;11429;50.842;4.386;2022-10-31T15:18:58;13.60;;;6.97;;
22525;SDS011;11429;50.842;4.386;2022-10-31T15:21:40;16.45;;;7.53;;
22525;SDS011;11429;50.842;4.386;2022-10-31T15:24:13;19.73;;;7.28;;
22525;SDS011;11429;50.842;4.386;2022-10-31T15:26:43;15.80;;;6.97;;
22525;SDS011;11429;50.842;4.386;2022-10-31T15:29:12;15.45;;;7.85;;
22525;SDS011;11429;50.842;4.386;2022-10-31T15:31:49;16.52;;;8.70;;
22525;SDS011;11429;50.842;4.386;2022-10-31T15:34:19;19.60;;;8.63;;
22525;SDS011;11429;50.842;4.386;2022-10-31T15:37:12;17.67;;;7.95;;
22525;SDS011;11429;50.842;4.386;2022-10-31T15:39:39;20.42;;;8.48;;
22525;SDS011;11429;50.842;4.386;2022-10-31T15:47:38;16.60;;;8.38;;
22525;SDS011;11429;50.842;4.386;2022-10-31T15:50:20;18.20;;;9.18;;
22525;SDS011;11429;50.842;4.386;2022-10-31T15:52:57;15.57;;;8.70;;
22525;SDS011;11429;50.842;4.386;2022-10-31T15:55:25;17.15;;;8.95;;
22525;SDS011;11429;50.842;4.386;2022-10-31T15:57:58;20.00;;;9.38;;
22525;SDS011;11429;50.842;4.386;2022-10-31T16:00:28;18.65;;;9.43;;
22525;SDS011;11429;50.842;4.386;2022-10-31T16:10:54;18.55;;;10.18;;
22525;SDS011;11429;50.842;4.386;2022-10-31T16:13:23;20.15;;;10.10;;
22525;SDS011;11429;50.842;4.386;2022-10-31T16:16:11;18.58;;;10.13;;
22525;SDS011;11429;50.842;4.386;2022-10-31T16:18:39;19.20;;;10.13;;
22525;SDS011;11429;50.842;4.386;2022-10-31T16:21:06;20.70;;;9.63;;
22525;SDS011;11429;50.842;4.386;2022-10-31T16:23:33;18.90;;;10.65;;
22525;SDS011;11429;50.842;4.386;2022-10-31T16:26:05;17.08;;;9.77;;
22525;SDS011;11429;50.842;4.386;2022-10-31T16:28:31;20.88;;;10.77;;
22525;SDS011;11429;50.842;4.386;2022-10-31T16:30:58;15.88;;;9.82;;
22525;SDS011;11429;50.842;4.386;2022-10-31T16:33:32;20.30;;;10.07;;
22525;SDS011;11429;50.842;4.386;2022-10-31T16:38:52;15.48;;;9.15;;
22525;SDS011;11429;50.842;4.386;2022-10-31T16:41:24;15.88;;;9.57;;
22525;SDS011;11429;50.842;4.386;2022-10-31T16:43:51;21.88;;;9.35;;
22525;SDS011;11429;50.842;4.386;2022-10-31T16:46:24;20.20;;;9.70;;
22525;SDS011;11429;50.842;4.386;2022-10-31T16:48:52;19.15;;;10.20;;
22525;SDS011;11429;50.842;4.386;2022-10-31T16:51:21;22.00;;;10.45;;
22525;SDS011;11429;50.842;4.386;2022-10-31T16:53:47;22.27;;;10.50;;
22525;SDS011;11429;50.842;4.386;2022-10-31T16:56:25;18.35;;;10.27;;
22525;SDS011;11429;50.842;4.386;2022-10-31T16:58:57;16.70;;;9.48;;
22525;SDS011;11429;50.842;4.386;2022-10-31T17:03:55;14.85;;;8.95;;
22525;SDS011;11429;50.842;4.386;2022-10-31T17:06:21;14.68;;;8.25;;
22525;SDS011;11429;50.842;4.386;2022-10-31T17:08:47;15.02;;;8.15;;
22525;SDS011;11429;50.842;4.386;2022-10-31T17:11:18;15.50;;;8.32;;
22525;SDS011;11429;50.842;4.386;2022-10-31T17:13:48;13.93;;;8.15;;
22525;SDS011;11429;50.842;4.386;2022-10-31T17:16:17;17.67;;;8.00;;
22525;SDS011;11429;50.842;4.386;2022-10-31T17:18:42;12.65;;;7.22;;
22525;SDS011;11429;50.842;4.386;2022-10-31T17:21:28;19.60;;;7.28;;